createdAt,value
2022-08-24T00:01:59.833Z,100.00
2022-08-24T00:09:33.833Z,100.00
2022-08-24T00:17:09.833Z,100.00
2022-08-24T00:24:44.331Z,100.00
2022-08-24T00:32:19.464Z,100.00
2022-08-24T00:39:54.516Z,100.00
2022-08-24T00:47:33.895Z,100.00
2022-08-24T00:55:11.153Z,100.00
2022-08-24T01:02:49.866Z,100.00
2022-08-24T01:10:27.110Z,100.00
2022-08-24T01:18:21.195Z,100.00
2022-08-24T01:25:56.656Z,100.00
2022-08-24T01:33:33.075Z,100.00
2022-08-24T01:41:08.498Z,100.00
2022-08-24T01:48:46.092Z,100.00
2022-08-24T01:56:21.196Z,100.00
2022-08-24T02:03:54.743Z,100.00
2022-08-24T02:11:31.736Z,100.00
2022-08-24T02:19:05.598Z,100.00
2022-08-24T02:26:40.698Z,100.00
2022-08-24T02:34:14.232Z,100.00
2022-08-24T02:41:49.847Z,100.00
2022-08-24T02:49:24.055Z,100.00
2022-08-24T02:56:59.185Z,100.00
2022-08-24T03:04:33.170Z,100.00
2022-08-24T03:12:08.704Z,100.00
2022-08-24T03:19:42.823Z,100.00
2022-08-24T03:27:18.027Z,100.00
2022-08-24T03:34:52.415Z,100.00
2022-08-24T03:42:27.830Z,100.00
2022-08-24T03:50:01.786Z,100.00
2022-08-24T03:57:37.089Z,100.00
2022-08-24T04:05:13.368Z,100.00
2022-08-24T04:12:49.738Z,100.00
2022-08-24T04:20:24.135Z,100.00
2022-08-24T04:27:59.255Z,100.00
2022-08-24T04:35:33.374Z,100.00
2022-08-24T04:43:09.142Z,100.00
2022-08-24T04:50:45.285Z,100.00
2022-08-24T04:58:20.675Z,100.00
2022-08-24T05:05:54.665Z,100.00
2022-08-24T05:13:29.768Z,100.00
2022-08-24T05:21:07.237Z,100.00
2022-08-24T05:28:42.473Z,100.00
2022-08-24T05:36:18.899Z,100.00
2022-08-24T05:43:54.554Z,100.00
2022-08-24T05:51:29.768Z,100.00
2022-08-24T05:59:05.390Z,100.00
2022-08-24T06:06:39.439Z,100.00
2022-08-24T06:14:17.082Z,100.00
2022-08-24T06:21:53.396Z,100.00
2022-08-24T06:29:28.656Z,100.00
2022-08-24T06:37:03.133Z,100.00
2022-08-24T06:44:38.577Z,100.00
2022-08-24T06:52:12.528Z,100.00
2022-08-24T06:59:47.727Z,100.00
2022-08-24T07:07:21.734Z,100.00
2022-08-24T07:14:56.908Z,100.00
2022-08-24T07:22:30.899Z,100.00
2022-08-24T07:30:25.732Z,100.00
2022-08-24T07:38:02.016Z,100.00
2022-08-24T07:45:38.035Z,100.00
2022-08-24T07:53:15.008Z,100.00
2022-08-24T08:00:53.710Z,100.00
2022-08-24T08:08:28.634Z,100.00
2022-08-24T08:16:07.967Z,100.00
2022-08-24T08:23:59.992Z,100.00
2022-08-24T08:31:36.224Z,100.00
2022-08-24T08:39:13.092Z,100.00
2022-08-24T08:47:03.247Z,100.00
2022-08-24T08:54:50.243Z,100.00
2022-08-24T09:02:43.652Z,100.00
2022-08-24T09:10:37.154Z,100.00
2022-08-24T09:18:27.831Z,100.00
2022-08-24T09:26:09.473Z,100.00
2022-08-24T09:33:46.941Z,100.00
2022-08-24T09:41:52.485Z,100.00
2022-08-24T09:49:47.703Z,100.00
2022-08-24T10:05:56.693Z,100.00
2022-08-24T10:13:40.280Z,100.00
2022-08-24T10:21:25.937Z,100.00
2022-08-24T10:29:18.816Z,100.00
2022-08-24T10:37:25.128Z,92.94
2022-08-24T10:45:12.945Z,91.30
2022-08-24T10:53:16.073Z,92.39
2022-08-24T11:00:52.330Z,91.45
2022-08-24T11:08:28.338Z,88.55
2022-08-24T11:16:05.634Z,86.14
2022-08-24T11:23:44.033Z,89.90
2022-08-24T11:31:35.028Z,86.66
2022-08-24T11:39:18.706Z,88.18
2022-08-24T11:47:01.021Z,86.97
2022-08-24T11:54:44.272Z,88.25
2022-08-24T12:02:29.595Z,85.90
2022-08-24T12:10:19.271Z,85.49
2022-08-24T12:18:05.077Z,78.71
2022-08-24T12:25:57.336Z,76.40
2022-08-24T12:33:37.745Z,77.56
2022-08-24T12:41:19.511Z,71.66
2022-08-24T12:48:59.737Z,73.82
2022-08-24T12:56:50.687Z,73.49
2022-08-24T13:04:36.292Z,70.32
2022-08-24T13:12:47.503Z,71.45
2022-08-24T13:20:27.463Z,65.90
2022-08-24T13:28:08.801Z,67.02
2022-08-24T13:36:07.295Z,65.03
2022-08-24T13:43:51.103Z,65.17
2022-08-24T13:51:46.578Z,67.66
2022-08-24T13:59:35.914Z,65.22
2022-08-24T14:07:19.184Z,62.97
2022-08-24T14:15:08.402Z,62.19
2022-08-24T14:23:00.534Z,63.97
2022-08-24T14:30:44.232Z,65.65
2022-08-24T14:38:34.582Z,63.32
2022-08-24T14:46:14.178Z,62.72
2022-08-24T14:54:01.644Z,61.25
2022-08-24T15:01:42.361Z,57.63
2022-08-24T15:09:23.561Z,58.15
2022-08-24T15:17:04.022Z,59.83
2022-08-24T15:24:45.123Z,61.38
2022-08-24T15:32:19.367Z,62.60
2022-08-24T15:39:54.575Z,61.85
2022-08-24T15:47:32.435Z,61.31
2022-08-24T15:55:16.077Z,60.01
2022-08-24T16:02:49.843Z,60.39
2022-08-24T16:10:33.354Z,60.49
2022-08-24T16:18:07.491Z,61.68
2022-08-24T16:25:47.986Z,59.57
2022-08-24T16:33:45.956Z,59.96
2022-08-24T16:41:23.665Z,60.40
2022-08-24T16:48:57.454Z,62.06
2022-08-24T16:56:32.666Z,64.09
2022-08-24T17:04:06.507Z,65.28
2022-08-24T17:11:42.342Z,65.67
2022-08-24T17:19:21.379Z,67.29
2022-08-24T17:26:57.550Z,67.81
2022-08-24T17:34:32.705Z,68.28
2022-08-24T17:42:27.896Z,69.54
2022-08-24T17:50:06.251Z,69.96
2022-08-24T17:57:45.611Z,70.27
2022-08-24T18:05:22.090Z,70.26
2022-08-24T18:12:58.941Z,73.41
2022-08-24T18:20:36.635Z,73.35
2022-08-24T18:28:12.169Z,73.81
2022-08-24T18:35:47.607Z,74.93
2022-08-24T18:43:24.807Z,76.42
2022-08-24T18:50:58.723Z,77.65
2022-08-24T18:58:33.837Z,78.96
2022-08-24T19:06:08.218Z,79.11
2022-08-24T19:13:43.995Z,79.58
2022-08-24T19:21:18.325Z,80.31
2022-08-24T19:28:53.905Z,81.24
2022-08-24T19:36:28.758Z,83.44
2022-08-24T19:44:27.698Z,85.12
2022-08-24T19:52:03.088Z,87.56
2022-08-24T19:59:41.791Z,90.21
2022-08-24T20:07:18.534Z,91.27
2022-08-24T20:14:53.719Z,92.66
2022-08-24T20:22:27.775Z,94.19
2022-08-24T20:30:03.406Z,97.59
2022-08-24T20:37:37.380Z,99.50
2022-08-24T20:45:13.949Z,100.00
2022-08-24T20:52:48.739Z,100.00
2022-08-24T21:00:24.464Z,100.00
2022-08-24T21:07:59.269Z,100.00
2022-08-24T21:15:35.091Z,100.00
2022-08-24T21:23:09.321Z,100.00
2022-08-24T21:30:44.613Z,100.00
2022-08-24T21:38:19.727Z,100.00
2022-08-24T21:45:56.611Z,100.00
2022-08-24T21:53:30.404Z,100.00
2022-08-24T22:01:06.426Z,100.00
2022-08-24T22:08:42.824Z,100.00
2022-08-24T22:16:18.327Z,100.00
2022-08-24T22:23:52.388Z,100.00
2022-08-24T22:31:33.678Z,100.00
2022-08-24T22:39:09.195Z,100.00
2022-08-24T22:46:44.661Z,100.00
2022-08-24T22:54:19.647Z,100.00
2022-08-24T23:01:55.349Z,100.00
2022-08-24T23:09:41.619Z,100.00
2022-08-24T23:17:20.726Z,100.00
2022-08-24T23:24:54.955Z,100.00
2022-08-24T23:32:30.206Z,100.00
2022-08-24T23:40:05.842Z,100.00
2022-08-24T23:47:41.295Z,100.00
2022-08-24T23:55:21.323Z,100.00
